sensor_id;sensor_type;location;lat;lon;timestamp;noise_LAeq;noise_LA_min;noise_LA_max;noise_LA01;noise_LA95
60031;Laerm;45901;47.600;9.890;2023-11-21T00:01:33;39.49;36.20;46.76;;
60031;Laerm;45901;47.600;9.890;2023-11-21T00:04:00;39.25;36.45;41.22;;
60031;Laerm;45901;47.600;9.890;2023-11-21T00:06:27;39.22;36.69;41.30;;
60031;Laerm;45901;47.600;9.890;2023-11-21T00:08:53;39.22;36.20;41.30;;
60031;Laerm;45901;47.600;9.890;2023-11-21T00:11:20;39.26;36.20;41.46;;
60031;Laerm;45901;47.600;9.890;2023-11-21T00:13:47;39.27;36.34;41.30;;
60031;Laerm;45901;47.600;9.890;2023-11-21T00:16:14;39.35;35.66;46.52;;
60031;Laerm;45901;47.600;9.890;2023-11-21T00:18:42;39.23;35.94;41.30;;
60031;Laerm;45901;47.600;9.890;2023-11-21T00:21:09;39.22;36.69;41.61;;
60031;Laerm;45901;47.600;9.890;2023-11-21T00:23:38;39.22;35.94;41.38;;
60031;Laerm;45901;47.600;9.890;2023-11-21T00:26:05;39.25;36.45;41.30;;
60031;Laerm;45901;47.600;9.890;2023-11-21T00:28:32;39.23;36.20;41.38;;
60031;Laerm;45901;47.600;9.890;2023-11-21T00:30:59;39.33;36.45;45.30;;
60031;Laerm;45901;47.600;9.890;2023-11-21T00:33:26;39.25;36.91;41.46;;
60031;Laerm;45901;47.600;9.890;2023-11-21T00:35:54;39.23;36.45;41.46;;
60031;Laerm;45901;47.600;9.890;2023-11-21T00:38:22;39.37;36.45;42.65;;
60031;Laerm;45901;47.600;9.890;2023-11-21T00:40:49;39.37;36.91;41.53;;
60031;Laerm;45901;47.600;9.890;2023-11-21T00:43:17;39.28;35.94;41.82;;
60031;Laerm;45901;47.600;9.890;2023-11-21T00:45:44;39.62;36.69;46.07;;
60031;Laerm;45901;47.600;9.890;2023-11-21T00:48:11;39.39;37.12;41.68;;
60031;Laerm;45901;47.600;9.890;2023-11-21T00:50:39;39.31;36.45;41.75;;
60031;Laerm;45901;47.600;9.890;2023-11-21T00:53:07;39.27;36.69;41.06;;
60031;Laerm;45901;47.600;9.890;2023-11-21T00:55:34;39.40;36.69;42.47;;
60031;Laerm;45901;47.600;9.890;2023-11-21T00:58:01;39.41;36.20;42.22;;
60031;Laerm;45901;47.600;9.890;2023-11-21T01:00:30;39.58;35.94;45.42;;
60031;Laerm;45901;47.600;9.890;2023-11-21T01:02:57;39.26;35.94;41.38;;
60031;Laerm;45901;47.600;9.890;2023-11-21T01:05:23;39.26;36.69;41.38;;
60031;Laerm;45901;47.600;9.890;2023-11-21T01:07:51;39.58;36.91;42.71;;
60031;Laerm;45901;47.600;9.890;2023-11-21T01:10:19;39.28;36.45;41.38;;
60031;Laerm;45901;47.600;9.890;2023-11-21T01:12:46;39.24;36.20;41.46;;
60031;Laerm;45901;47.600;9.890;2023-11-21T01:15:14;39.30;36.20;45.30;;
60031;Laerm;45901;47.600;9.890;2023-11-21T01:17:41;39.24;36.45;41.61;;
60031;Laerm;45901;47.600;9.890;2023-11-21T01:20:09;39.22;36.20;41.22;;
60031;Laerm;45901;47.600;9.890;2023-11-21T01:22:38;39.22;36.20;41.30;;
60031;Laerm;45901;47.600;9.890;2023-11-21T01:25:06;39.24;36.20;41.46;;
60031;Laerm;45901;47.600;9.890;2023-11-21T01:27:34;39.22;36.20;41.38;;
60031;Laerm;45901;47.600;9.890;2023-11-21T01:30:03;39.43;36.69;46.64;;
60031;Laerm;45901;47.600;9.890;2023-11-21T01:32:32;39.29;36.91;41.46;;
60031;Laerm;45901;47.600;9.890;2023-11-21T01:35:00;39.24;36.69;41.30;;
60031;Laerm;45901;47.600;9.890;2023-11-21T01:37:27;39.26;36.45;41.30;;
60031;Laerm;45901;47.600;9.890;2023-11-21T01:39:54;39.29;36.20;41.46;;
60031;Laerm;45901;47.600;9.890;2023-11-21T01:42:22;39.32;36.20;41.61;;
60031;Laerm;45901;47.600;9.890;2023-11-21T01:44:50;39.46;35.66;45.23;;
60031;Laerm;45901;47.600;9.890;2023-11-21T01:47:17;39.65;36.45;47.30;;
60031;Laerm;45901;47.600;9.890;2023-11-21T01:49:45;39.30;35.86;42.03;;
60031;Laerm;45901;47.600;9.890;2023-11-21T01:52:13;39.27;36.20;41.22;;
60031;Laerm;45901;47.600;9.890;2023-11-21T01:54:41;39.31;36.45;42.47;;
60031;Laerm;45901;47.600;9.890;2023-11-21T01:57:08;39.39;36.91;42.82;;
60031;Laerm;45901;47.600;9.890;2023-11-21T01:59:37;39.48;36.91;41.75;;
60031;Laerm;45901;47.600;9.890;2023-11-21T02:02:06;39.76;36.69;45.97;;
60031;Laerm;45901;47.600;9.890;2023-11-21T02:04:36;39.29;36.45;41.53;;
60031;Laerm;45901;47.600;9.890;2023-11-21T02:07:03;39.41;36.45;41.61;;
60031;Laerm;45901;47.600;9.890;2023-11-21T02:09:31;39.53;36.69;41.61;;
60031;Laerm;45901;47.600;9.890;2023-11-21T02:11:59;39.55;36.91;43.54;;
60031;Laerm;45901;47.600;9.890;2023-11-21T02:14:26;39.55;36.45;43.39;;
60031;Laerm;45901;47.600;9.890;2023-11-21T02:16:54;39.80;37.35;46.52;;
60031;Laerm;45901;47.600;9.890;2023-11-21T02:19:24;39.68;36.69;42.59;;
60031;Laerm;45901;47.600;9.890;2023-11-21T02:21:52;39.55;36.91;43.24;;
60031;Laerm;45901;47.600;9.890;2023-11-21T02:24:22;40.24;36.91;43.63;;
60031;Laerm;45901;47.600;9.890;2023-11-21T02:26:50;39.77;36.91;41.75;;
60031;Laerm;45901;47.600;9.890;2023-11-21T02:29:17;39.80;36.91;41.75;;
60031;Laerm;45901;47.600;9.890;2023-11-21T02:31:47;39.89;37.32;44.11;;
60031;Laerm;45901;47.600;9.890;2023-11-21T02:34:15;39.86;37.52;46.55;;
60031;Laerm;45901;47.600;9.890;2023-11-21T02:36:42;40.05;37.52;43.72;;
60031;Laerm;45901;47.600;9.890;2023-11-21T02:39:09;40.66;37.70;47.02;;
60031;Laerm;45901;47.600;9.890;2023-11-21T02:41:38;39.89;37.70;42.09;;
60031;Laerm;45901;47.600;9.890;2023-11-21T02:44:06;39.82;37.52;41.61;;
60031;Laerm;45901;47.600;9.890;2023-11-21T02:46:33;39.95;36.91;46.15;;
60031;Laerm;45901;47.600;9.890;2023-11-21T02:49:01;39.72;36.91;41.75;;
60031;Laerm;45901;47.600;9.890;2023-11-21T02:51:28;39.83;36.91;43.90;;
60031;Laerm;45901;47.600;9.890;2023-11-21T02:53:55;39.90;37.12;41.75;;
60031;Laerm;45901;47.600;9.890;2023-11-21T02:56:24;39.95;37.32;42.06;;
60031;Laerm;45901;47.600;9.890;2023-11-21T02:58:55;40.25;37.70;46.84;;
60031;Laerm;45901;47.600;9.890;2023-11-21T03:01:23;40.31;36.69;46.23;;
60031;Laerm;45901;47.600;9.890;2023-11-21T03:03:50;39.90;36.91;41.68;;
60031;Laerm;45901;47.600;9.890;2023-11-21T03:06:18;39.90;37.12;43.04;;
60031;Laerm;45901;47.600;9.890;2023-11-21T03:08:46;39.98;37.32;43.39;;
60031;Laerm;45901;47.600;9.890;2023-11-21T03:11:13;40.03;37.52;42.09;;
60031;Laerm;45901;47.600;9.890;2023-11-21T03:13:40;40.10;36.91;42.16;;
60031;Laerm;45901;47.600;9.890;2023-11-21T03:16:10;40.23;37.32;45.30;;
60031;Laerm;45901;47.600;9.890;2023-11-21T03:18:38;40.14;37.88;42.41;;
60031;Laerm;45901;47.600;9.890;2023-11-21T03:21:06;40.16;37.88;41.89;;
60031;Laerm;45901;47.600;9.890;2023-11-21T03:23:34;40.23;37.52;42.29;;
60031;Laerm;45901;47.600;9.890;2023-11-21T03:26:02;40.04;37.52;42.09;;
60031;Laerm;45901;47.600;9.890;2023-11-21T03:28:29;40.08;36.91;45.30;;
60031;Laerm;45901;47.600;9.890;2023-11-21T03:30:57;40.20;37.12;45.33;;
60031;Laerm;45901;47.600;9.890;2023-11-21T03:33:25;40.02;37.32;41.82;;
60031;Laerm;45901;47.600;9.890;2023-11-21T03:35:52;40.00;37.70;41.75;;
60031;Laerm;45901;47.600;9.890;2023-11-21T03:38:19;40.11;37.70;45.27;;
60031;Laerm;45901;47.600;9.890;2023-11-21T03:40:47;40.17;37.52;42.41;;
60031;Laerm;45901;47.600;9.890;2023-11-21T03:43:13;40.21;37.52;42.09;;
60031;Laerm;45901;47.600;9.890;2023-11-21T03:45:40;40.27;37.70;45.83;;
60031;Laerm;45901;47.600;9.890;2023-11-21T03:48:07;40.26;37.12;43.24;;
60031;Laerm;45901;47.600;9.890;2023-11-21T03:50:36;40.35;38.05;45.04;;
60031;Laerm;45901;47.600;9.890;2023-11-21T03:53:03;40.28;38.05;41.96;;
60031;Laerm;45901;47.600;9.890;2023-11-21T03:55:30;40.39;37.70;42.03;;
60031;Laerm;45901;47.600;9.890;2023-11-21T03:57:57;40.39;37.70;42.03;;
60031;Laerm;45901;47.600;9.890;2023-11-21T04:00:25;40.75;37.88;45.94;;
60031;Laerm;45901;47.600;9.890;2023-11-21T04:02:55;40.44;37.88;43.29;;
60031;Laerm;45901;47.600;9.890;2023-11-21T04:05:23;40.59;38.21;43.24;;
60031;Laerm;45901;47.600;9.890;2023-11-21T04:07:51;40.59;38.37;43.14;;
60031;Laerm;45901;47.600;9.890;2023-11-21T04:10:19;40.56;38.21;44.51;;
60031;Laerm;45901;47.600;9.890;2023-11-21T04:12:46;40.53;38.05;43.94;;
60031;Laerm;45901;47.600;9.890;2023-11-21T04:15:14;40.72;38.37;45.04;;
60031;Laerm;45901;47.600;9.890;2023-11-21T04:17:41;40.59;38.37;44.82;;
60031;Laerm;45901;47.600;9.890;2023-11-21T04:20:09;40.78;38.60;45.75;;
60031;Laerm;45901;47.600;9.890;2023-11-21T04:22:39;41.77;39.08;49.27;;
60031;Laerm;45901;47.600;9.890;2023-11-21T04:25:11;41.06;38.21;47.18;;
60031;Laerm;45901;47.600;9.890;2023-11-21T04:27:40;40.83;37.88;44.27;;
60031;Laerm;45901;47.600;9.890;2023-11-21T04:30:11;41.59;39.08;46.55;;
60031;Laerm;45901;47.600;9.890;2023-11-21T04:32:38;41.56;39.21;46.52;;
60031;Laerm;45901;47.600;9.890;2023-11-21T04:35:06;41.22;38.95;45.30;;
60031;Laerm;45901;47.600;9.890;2023-11-21T04:37:34;41.03;38.95;45.04;;
60031;Laerm;45901;47.600;9.890;2023-11-21T04:40:01;40.95;38.37;44.03;;
60031;Laerm;45901;47.600;9.890;2023-11-21T04:42:31;40.93;38.52;45.48;;
60031;Laerm;45901;47.600;9.890;2023-11-21T04:44:58;41.06;38.95;46.25;;
60031;Laerm;45901;47.600;9.890;2023-11-21T04:47:25;40.88;38.67;45.94;;
60031;Laerm;45901;47.600;9.890;2023-11-21T04:49:52;40.63;38.32;43.94;;
60031;Laerm;45901;47.600;9.890;2023-11-21T04:52:19;40.72;38.21;43.14;;
60031;Laerm;45901;47.600;9.890;2023-11-21T04:54:47;41.14;38.95;43.72;;
60031;Laerm;45901;47.600;9.890;2023-11-21T04:57:14;40.95;38.37;44.15;;
60031;Laerm;45901;47.600;9.890;2023-11-21T04:59:45;40.97;38.37;50.72;;
60031;Laerm;45901;47.600;9.890;2023-11-21T05:02:12;41.20;38.67;46.40;;
60031;Laerm;45901;47.600;9.890;2023-11-21T05:04:39;41.28;38.37;44.87;;
60031;Laerm;45901;47.600;9.890;2023-11-21T05:07:08;40.66;38.37;42.59;;
60031;Laerm;45901;47.600;9.890;2023-11-21T05:09:35;40.76;38.52;44.23;;
60031;Laerm;45901;47.600;9.890;2023-11-21T05:12:04;40.56;38.37;46.30;;
60031;Laerm;45901;47.600;9.890;2023-11-21T05:14:31;40.59;38.37;43.09;;
60031;Laerm;45901;47.600;9.890;2023-11-21T05:16:59;40.73;38.32;46.07;;
60031;Laerm;45901;47.600;9.890;2023-11-21T05:19:26;40.50;38.05;43.86;;
60031;Laerm;45901;47.600;9.890;2023-11-21T05:21:54;40.65;38.21;44.27;;
60031;Laerm;45901;47.600;9.890;2023-11-21T05:24:21;41.04;38.67;48.67;;
60031;Laerm;45901;47.600;9.890;2023-11-21T05:26:48;41.51;38.87;48.08;;
60031;Laerm;45901;47.600;9.890;2023-11-21T05:29:15;40.87;38.52;47.12;;
60031;Laerm;45901;47.600;9.890;2023-11-21T05:31:42;40.74;38.52;44.76;;
60031;Laerm;45901;47.600;9.890;2023-11-21T05:34:10;40.91;38.37;45.83;;
60031;Laerm;45901;47.600;9.890;2023-11-21T05:36:37;40.78;38.52;44.62;;
60031;Laerm;45901;47.600;9.890;2023-11-21T05:39:04;40.72;38.37;43.77;;
60031;Laerm;45901;47.600;9.890;2023-11-21T05:41:31;40.70;38.05;45.04;;
60031;Laerm;45901;47.600;9.890;2023-11-21T05:43:58;40.63;38.05;42.76;;
60031;Laerm;45901;47.600;9.890;2023-11-21T05:46:27;40.77;38.21;46.29;;
60031;Laerm;45901;47.600;9.890;2023-11-21T05:48:55;40.58;37.70;43.39;;
60031;Laerm;45901;47.600;9.890;2023-11-21T05:51:23;40.58;38.18;43.81;;
60031;Laerm;45901;47.600;9.890;2023-11-21T05:53:50;40.56;38.21;42.47;;
60031;Laerm;45901;47.600;9.890;2023-11-21T05:56:17;40.82;37.87;43.99;;
60031;Laerm;45901;47.600;9.890;2023-11-21T05:58:44;40.72;37.52;43.24;;
60031;Laerm;45901;47.600;9.890;2023-11-21T06:01:11;41.37;38.52;46.23;;
60031;Laerm;45901;47.600;9.890;2023-11-21T06:03:38;40.96;38.37;43.99;;
60031;Laerm;45901;47.600;9.890;2023-11-21T06:06:06;40.93;38.37;43.44;;
60031;Laerm;45901;47.600;9.890;2023-11-21T06:08:34;41.03;38.21;45.75;;
60031;Laerm;45901;47.600;9.890;2023-11-21T06:11:01;40.91;38.21;42.59;;
60031;Laerm;45901;47.600;9.890;2023-11-21T06:13:28;41.05;38.37;44.97;;
60031;Laerm;45901;47.600;9.890;2023-11-21T06:15:56;41.11;38.52;45.83;;
60031;Laerm;45901;47.600;9.890;2023-11-21T06:18:23;41.19;38.52;42.93;;
60031;Laerm;45901;47.600;9.890;2023-11-21T06:20:50;41.12;37.88;47.36;;
60031;Laerm;45901;47.600;9.890;2023-11-21T06:23:18;41.53;39.08;44.69;;
60031;Laerm;45901;47.600;9.890;2023-11-21T06:25:47;41.60;38.95;44.27;;
60031;Laerm;45901;47.600;9.890;2023-11-21T06:28:15;41.66;38.95;45.69;;
60031;Laerm;45901;47.600;9.890;2023-11-21T06:30:43;41.76;38.81;46.05;;
60031;Laerm;45901;47.600;9.890;2023-11-21T06:33:10;41.77;38.67;51.39;;
60031;Laerm;45901;47.600;9.890;2023-11-21T06:35:38;41.95;39.58;44.19;;
60031;Laerm;45901;47.600;9.890;2023-11-21T06:38:05;41.86;39.08;45.83;;
60031;Laerm;45901;47.600;9.890;2023-11-21T06:40:32;41.71;38.52;44.23;;
60031;Laerm;45901;47.600;9.890;2023-11-21T06:43:01;41.48;39.08;43.55;;
60031;Laerm;45901;47.600;9.890;2023-11-21T06:45:28;41.58;38.21;45.94;;
60031;Laerm;45901;47.600;9.890;2023-11-21T06:47:55;41.31;38.37;45.14;;
60031;Laerm;45901;47.600;9.890;2023-11-21T06:50:22;41.27;38.67;46.23;;
60031;Laerm;45901;47.600;9.890;2023-11-21T06:52:49;41.28;38.67;43.86;;
60031;Laerm;45901;47.600;9.890;2023-11-21T06:55:16;41.25;38.67;43.63;;
60031;Laerm;45901;47.600;9.890;2023-11-21T06:57:43;40.91;38.52;42.88;;
60031;Laerm;45901;47.600;9.890;2023-11-21T07:00:13;41.19;38.52;52.41;;
60031;Laerm;45901;47.600;9.890;2023-11-21T07:02:41;41.02;38.21;48.15;;
60031;Laerm;45901;47.600;9.890;2023-11-21T07:05:08;41.03;38.05;52.13;;
60031;Laerm;45901;47.600;9.890;2023-11-21T07:07:35;40.94;38.02;43.72;;
60031;Laerm;45901;47.600;9.890;2023-11-21T07:10:03;41.01;38.37;45.94;;
60031;Laerm;45901;47.600;9.890;2023-11-21T07:12:31;40.99;38.37;48.18;;
60031;Laerm;45901;47.600;9.890;2023-11-21T07:14:58;42.10;38.37;50.59;;
60031;Laerm;45901;47.600;9.890;2023-11-21T07:17:26;44.07;40.23;48.85;;
60031;Laerm;45901;47.600;9.890;2023-11-21T07:19:53;42.37;38.52;49.12;;
60031;Laerm;45901;47.600;9.890;2023-11-21T07:22:20;40.94;37.88;42.65;;
60031;Laerm;45901;47.600;9.890;2023-11-21T07:24:49;45.01;38.21;52.44;;
60031;Laerm;45901;47.600;9.890;2023-11-21T07:27:17;45.43;38.37;51.30;;
60031;Laerm;45901;47.600;9.890;2023-11-21T07:29:44;40.79;38.37;43.39;;
60031;Laerm;45901;47.600;9.890;2023-11-21T07:32:11;40.84;38.21;45.17;;
60031;Laerm;45901;47.600;9.890;2023-11-21T07:34:40;40.77;37.52;46.02;;
60031;Laerm;45901;47.600;9.890;2023-11-21T07:37:07;40.74;37.88;42.98;;
60031;Laerm;45901;47.600;9.890;2023-11-21T07:39:34;40.68;38.05;45.98;;
60031;Laerm;45901;47.600;9.890;2023-11-21T07:42:02;40.92;37.88;45.48;;
60031;Laerm;45901;47.600;9.890;2023-11-21T07:44:30;40.47;37.88;42.47;;
60031;Laerm;45901;47.600;9.890;2023-11-21T07:46:57;40.65;37.52;45.07;;
60031;Laerm;45901;47.600;9.890;2023-11-21T07:49:24;43.19;38.37;49.91;;
60031;Laerm;45901;47.600;9.890;2023-11-21T07:51:53;40.78;38.37;44.19;;
60031;Laerm;45901;47.600;9.890;2023-11-21T07:54:20;40.93;38.37;44.47;;
60031;Laerm;45901;47.600;9.890;2023-11-21T07:56:48;40.71;37.88;42.82;;
60031;Laerm;45901;47.600;9.890;2023-11-21T07:59:15;40.92;38.37;45.63;;
60031;Laerm;45901;47.600;9.890;2023-11-21T08:01:42;41.36;38.67;47.12;;
60031;Laerm;45901;47.600;9.890;2023-11-21T08:04:11;40.93;37.52;56.88;;
60031;Laerm;45901;47.600;9.890;2023-11-21T08:06:38;40.83;37.88;43.58;;
60031;Laerm;45901;47.600;9.890;2023-11-21T08:09:08;40.81;37.88;50.46;;
60031;Laerm;45901;47.600;9.890;2023-11-21T08:11:38;41.50;38.67;44.76;;
60031;Laerm;45901;47.600;9.890;2023-11-21T08:14:05;41.14;38.52;43.29;;
60031;Laerm;45901;47.600;9.890;2023-11-21T08:16:32;41.05;38.21;44.90;;
60031;Laerm;45901;47.600;9.890;2023-11-21T08:18:59;40.93;37.70;46.28;;
60031;Laerm;45901;47.600;9.890;2023-11-21T08:21:26;41.21;38.21;45.04;;
60031;Laerm;45901;47.600;9.890;2023-11-21T08:23:54;41.29;38.21;44.47;;
60031;Laerm;45901;47.600;9.890;2023-11-21T08:26:23;41.85;38.67;55.13;;
60031;Laerm;45901;47.600;9.890;2023-11-21T08:28:50;41.74;39.21;48.85;;
60031;Laerm;45901;47.600;9.890;2023-11-21T08:31:24;41.39;38.67;45.30;;
60031;Laerm;45901;47.600;9.890;2023-11-21T08:33:51;41.24;38.21;43.09;;
60031;Laerm;45901;47.600;9.890;2023-11-21T08:36:21;41.24;37.32;45.30;;
60031;Laerm;45901;47.600;9.890;2023-11-21T08:38:48;40.99;37.88;43.34;;
60031;Laerm;45901;47.600;9.890;2023-11-21T08:41:15;40.95;38.32;43.72;;
60031;Laerm;45901;47.600;9.890;2023-11-21T08:43:44;41.12;38.67;43.14;;
60031;Laerm;45901;47.600;9.890;2023-11-21T08:46:10;41.34;38.67;45.42;;
60031;Laerm;45901;47.600;9.890;2023-11-21T08:48:38;41.29;38.37;45.66;;
60031;Laerm;45901;47.600;9.890;2023-11-21T08:51:05;40.98;38.21;44.03;;
60031;Laerm;45901;47.600;9.890;2023-11-21T08:53:32;40.87;38.37;46.38;;
60031;Laerm;45901;47.600;9.890;2023-11-21T08:55:59;41.00;38.37;44.39;;
60031;Laerm;45901;47.600;9.890;2023-11-21T08:58:26;41.14;38.21;44.73;;
60031;Laerm;45901;47.600;9.890;2023-11-21T09:00:55;41.38;38.37;46.43;;
60031;Laerm;45901;47.600;9.890;2023-11-21T09:03:22;41.75;38.95;44.15;;
60031;Laerm;45901;47.600;9.890;2023-11-21T09:05:50;41.62;38.67;46.78;;
60031;Laerm;45901;47.600;9.890;2023-11-21T09:08:17;41.84;39.08;48.12;;
60031;Laerm;45901;47.600;9.890;2023-11-21T09:10:44;41.54;38.95;43.58;;
60031;Laerm;45901;47.600;9.890;2023-11-21T09:13:13;41.25;38.95;42.93;;
60031;Laerm;45901;47.600;9.890;2023-11-21T09:15:43;41.35;38.95;44.31;;
60031;Laerm;45901;47.600;9.890;2023-11-21T09:18:13;41.13;37.32;43.90;;
60031;Laerm;45901;47.600;9.890;2023-11-21T09:20:40;40.86;38.52;43.04;;
60031;Laerm;45901;47.600;9.890;2023-11-21T09:23:08;40.70;37.70;42.93;;
60031;Laerm;45901;47.600;9.890;2023-11-21T09:25:35;40.70;38.37;43.09;;
60031;Laerm;45901;47.600;9.890;2023-11-21T09:28:03;40.83;37.88;43.09;;
60031;Laerm;45901;47.600;9.890;2023-11-21T09:30:34;40.81;37.88;46.05;;
60031;Laerm;45901;47.600;9.890;2023-11-21T09:33:01;41.04;38.52;45.20;;
60031;Laerm;45901;47.600;9.890;2023-11-21T09:35:30;41.26;38.21;45.99;;
60031;Laerm;45901;47.600;9.890;2023-11-21T09:37:57;41.40;38.81;49.74;;
60031;Laerm;45901;47.600;9.890;2023-11-21T09:40:24;41.22;38.21;43.63;;
60031;Laerm;45901;47.600;9.890;2023-11-21T09:42:55;41.05;38.52;43.49;;
60031;Laerm;45901;47.600;9.890;2023-11-21T09:45:26;41.39;38.37;47.52;;
60031;Laerm;45901;47.600;9.890;2023-11-21T09:47:55;41.19;38.21;49.18;;
60031;Laerm;45901;47.600;9.890;2023-11-21T09:50:24;41.07;38.74;43.14;;
60031;Laerm;45901;47.600;9.890;2023-11-21T09:53:01;41.32;38.67;43.44;;
60031;Laerm;45901;47.600;9.890;2023-11-21T09:55:34;41.13;38.67;43.77;;
60031;Laerm;45901;47.600;9.890;2023-11-21T09:58:03;41.28;38.81;44.03;;
60031;Laerm;45901;47.600;9.890;2023-11-21T10:00:33;41.48;37.88;45.97;;
60031;Laerm;45901;47.600;9.890;2023-11-21T10:03:00;41.52;38.67;53.33;;
60031;Laerm;45901;47.600;9.890;2023-11-21T10:05:28;41.08;38.21;51.89;;
60031;Laerm;45901;47.600;9.890;2023-11-21T10:07:57;41.10;38.05;42.82;;
60031;Laerm;45901;47.600;9.890;2023-11-21T10:10:25;40.93;37.88;45.45;;
60031;Laerm;45901;47.600;9.890;2023-11-21T10:12:56;40.78;38.21;43.14;;
60031;Laerm;45901;47.600;9.890;2023-11-21T10:15:24;40.78;37.52;45.36;;
60031;Laerm;45901;47.600;9.890;2023-11-21T10:17:52;41.26;38.21;46.13;;
60031;Laerm;45901;47.600;9.890;2023-11-21T10:20:20;40.52;37.70;45.63;;
60031;Laerm;45901;47.600;9.890;2023-11-21T10:22:47;40.97;37.70;46.66;;
60031;Laerm;45901;47.600;9.890;2023-11-21T10:25:16;41.12;38.37;44.76;;
60031;Laerm;45901;47.600;9.890;2023-11-21T10:27:49;41.25;37.88;47.98;;
60031;Laerm;45901;47.600;9.890;2023-11-21T10:30:18;40.96;38.52;45.51;;
60031;Laerm;45901;47.600;9.890;2023-11-21T10:32:45;41.28;38.67;43.44;;
60031;Laerm;45901;47.600;9.890;2023-11-21T10:35:12;41.38;37.70;43.68;;
60031;Laerm;45901;47.600;9.890;2023-11-21T10:37:39;41.42;38.21;43.44;;
60031;Laerm;45901;47.600;9.890;2023-11-21T10:40:08;41.48;37.70;43.63;;
60031;Laerm;45901;47.600;9.890;2023-11-21T10:42:39;41.49;37.88;43.39;;
60031;Laerm;45901;47.600;9.890;2023-11-21T10:45:06;41.77;38.95;46.59;;
60031;Laerm;45901;47.600;9.890;2023-11-21T10:47:39;41.85;39.34;49.20;;
60031;Laerm;45901;47.600;9.890;2023-11-21T10:50:07;42.29;39.70;44.47;;
60031;Laerm;45901;47.600;9.890;2023-11-21T10:52:36;42.39;38.81;44.35;;
60031;Laerm;45901;47.600;9.890;2023-11-21T10:55:16;41.93;38.37;44.58;;
60031;Laerm;45901;47.600;9.890;2023-11-21T10:57:49;41.47;38.52;45.27;;
60031;Laerm;45901;47.600;9.890;2023-11-21T11:00:19;41.54;38.05;45.45;;
60031;Laerm;45901;47.600;9.890;2023-11-21T11:02:50;41.45;37.52;45.80;;
60031;Laerm;45901;47.600;9.890;2023-11-21T11:05:20;41.90;39.08;45.37;;
60031;Laerm;45901;47.600;9.890;2023-11-21T11:07:51;41.09;38.18;46.98;;
60031;Laerm;45901;47.600;9.890;2023-11-21T11:10:20;40.78;37.88;43.09;;
60031;Laerm;45901;47.600;9.890;2023-11-21T11:12:50;40.98;38.37;45.01;;
60031;Laerm;45901;47.600;9.890;2023-11-21T11:15:18;40.77;37.88;45.69;;
60031;Laerm;45901;47.600;9.890;2023-11-21T11:17:46;40.77;37.88;45.51;;
60031;Laerm;45901;47.600;9.890;2023-11-21T11:20:16;40.77;37.88;44.62;;
60031;Laerm;45901;47.600;9.890;2023-11-21T11:22:55;40.46;37.52;43.34;;
60031;Laerm;45901;47.600;9.890;2023-11-21T11:25:43;40.48;37.52;46.45;;
60031;Laerm;45901;47.600;9.890;2023-11-21T11:28:20;40.10;37.70;42.16;;
60031;Laerm;45901;47.600;9.890;2023-11-21T11:31:00;40.23;37.32;46.07;;
60031;Laerm;45901;47.600;9.890;2023-11-21T11:33:38;40.08;36.69;45.77;;
60031;Laerm;45901;47.600;9.890;2023-11-21T11:36:15;40.04;37.52;42.41;;
60031;Laerm;45901;47.600;9.890;2023-11-21T11:38:46;40.04;37.32;42.82;;
60031;Laerm;45901;47.600;9.890;2023-11-21T11:41:24;39.95;37.52;43.58;;
60031;Laerm;45901;47.600;9.890;2023-11-21T11:43:54;40.41;37.12;47.57;;
60031;Laerm;45901;47.600;9.890;2023-11-21T11:46:22;40.60;37.70;46.91;;
60031;Laerm;45901;47.600;9.890;2023-11-21T11:49:07;40.63;37.52;60.28;;
60031;Laerm;45901;47.600;9.890;2023-11-21T11:51:34;40.69;37.70;47.40;;
60031;Laerm;45901;47.600;9.890;2023-11-21T11:54:02;41.17;38.21;48.18;;
60031;Laerm;45901;47.600;9.890;2023-11-21T11:56:30;40.33;37.32;45.20;;
60031;Laerm;45901;47.600;9.890;2023-11-21T11:59:03;40.08;37.32;43.44;;
60031;Laerm;45901;47.600;9.890;2023-11-21T12:01:33;40.60;37.52;48.18;;
60031;Laerm;45901;47.600;9.890;2023-11-21T12:04:26;40.29;37.52;44.31;;
60031;Laerm;45901;47.600;9.890;2023-11-21T12:07:01;40.25;37.52;43.54;;
60031;Laerm;45901;47.600;9.890;2023-11-21T12:09:30;40.46;37.32;50.20;;
60031;Laerm;45901;47.600;9.890;2023-11-21T12:11:58;40.48;37.52;45.63;;
60031;Laerm;45901;47.600;9.890;2023-11-21T12:14:28;40.35;37.12;43.63;;
60031;Laerm;45901;47.600;9.890;2023-11-21T12:16:55;40.41;37.12;45.66;;
60031;Laerm;45901;47.600;9.890;2023-11-21T12:19:22;39.71;37.12;41.53;;
60031;Laerm;45901;47.600;9.890;2023-11-21T12:21:49;40.48;37.52;44.69;;
60031;Laerm;45901;47.600;9.890;2023-11-21T12:24:18;39.97;37.12;46.97;;
60031;Laerm;45901;47.600;9.890;2023-11-21T12:26:45;40.15;37.70;48.74;;
60031;Laerm;45901;47.600;9.890;2023-11-21T12:29:12;40.55;38.05;44.73;;
60031;Laerm;45901;47.600;9.890;2023-11-21T12:31:40;40.10;37.12;51.84;;
60031;Laerm;45901;47.600;9.890;2023-11-21T12:34:07;41.23;38.05;60.24;;
60031;Laerm;45901;47.600;9.890;2023-11-21T12:36:37;40.53;37.70;46.18;;
60031;Laerm;45901;47.600;9.890;2023-11-21T12:39:04;40.43;37.70;49.20;;
60031;Laerm;45901;47.600;9.890;2023-11-21T12:41:32;40.92;37.88;53.00;;
60031;Laerm;45901;47.600;9.890;2023-11-21T12:43:59;41.29;37.70;59.51;;
60031;Laerm;45901;47.600;9.890;2023-11-21T12:46:26;40.55;36.45;46.64;;
60031;Laerm;45901;47.600;9.890;2023-11-21T12:48:57;40.58;38.05;50.91;;
60031;Laerm;45901;47.600;9.890;2023-11-21T12:51:25;41.10;38.05;50.17;;
60031;Laerm;45901;47.600;9.890;2023-11-21T12:53:52;40.48;37.70;45.86;;
60031;Laerm;45901;47.600;9.890;2023-11-21T12:56:21;39.98;37.12;42.47;;
60031;Laerm;45901;47.600;9.890;2023-11-21T12:58:53;40.45;37.70;47.57;;
60031;Laerm;45901;47.600;9.890;2023-11-21T13:01:26;40.56;37.70;46.38;;
60031;Laerm;45901;47.600;9.890;2023-11-21T13:03:58;39.92;37.32;45.36;;
60031;Laerm;45901;47.600;9.890;2023-11-21T13:06:25;40.15;37.70;45.48;;
60031;Laerm;45901;47.600;9.890;2023-11-21T13:08:54;40.15;37.32;44.23;;
60031;Laerm;45901;47.600;9.890;2023-11-21T13:11:22;40.64;37.70;51.95;;
60031;Laerm;45901;47.600;9.890;2023-11-21T13:13:52;40.32;37.88;44.69;;
60031;Laerm;45901;47.600;9.890;2023-11-21T13:16:20;40.37;37.52;45.57;;
60031;Laerm;45901;47.600;9.890;2023-11-21T13:18:47;40.76;37.70;57.94;;
60031;Laerm;45901;47.600;9.890;2023-11-21T13:21:16;40.68;37.70;46.30;;
60031;Laerm;45901;47.600;9.890;2023-11-21T13:23:43;40.58;37.88;45.39;;
60031;Laerm;45901;47.600;9.890;2023-11-21T13:26:11;40.45;37.70;49.93;;
60031;Laerm;45901;47.600;9.890;2023-11-21T13:28:40;39.88;37.12;43.34;;
60031;Laerm;45901;47.600;9.890;2023-11-21T13:31:11;40.28;37.32;45.07;;
60031;Laerm;45901;47.600;9.890;2023-11-21T13:33:53;39.99;37.12;44.54;;
60031;Laerm;45901;47.600;9.890;2023-11-21T13:36:25;40.19;37.52;43.24;;
60031;Laerm;45901;47.600;9.890;2023-11-21T13:38:56;40.23;37.32;48.57;;
60031;Laerm;45901;47.600;9.890;2023-11-21T13:41:24;39.99;37.12;50.19;;
60031;Laerm;45901;47.600;9.890;2023-11-21T13:43:56;40.00;37.32;44.07;;
60031;Laerm;45901;47.600;9.890;2023-11-21T13:46:31;40.33;37.32;56.45;;
60031;Laerm;45901;47.600;9.890;2023-11-21T13:49:02;40.28;37.32;48.51;;
60031;Laerm;45901;47.600;9.890;2023-11-21T13:51:35;39.94;37.52;49.23;;